Time;durP1;ratioP1;P1;durP2;ratioP2;P2;SDS_P1;SDS_P2;PMS_P1;PMS_P2;Temp;Humidity;BMP_temperature;BMP_pressure;BME280_temperature;BME280_humidity;BME280_pressure;Samples;Min_cycle;Max_cycle;Signal;HPM_P1;HPM_P2
2023/07/26 00:02:09;;;;;;;2.05;1.20;;;;;;;17.88;52.62;101083.00;5139365;27;20123;-60
2023/07/26 00:04:38;;;;;;;3.63;1.42;;;;;;;17.86;52.63;101091.41;5138487;27;20116;-60
2023/07/26 00:07:06;;;;;;;5.18;1.63;;;;;;;17.87;52.78;101086.78;5142735;27;20043;-61
2023/07/26 00:09:34;;;;;;;1.92;1.40;;;;;;;17.85;52.71;101080.78;5143698;27;20047;-61
2023/07/26 00:12:02;;;;;;;1.52;1.27;;;;;;;17.85;52.69;101086.22;5138048;27;20051;-60
2023/07/26 00:14:30;;;;;;;3.22;1.35;;;;;;;17.84;52.88;101087.31;5143501;27;20046;-60
2023/07/26 00:16:58;;;;;;;5.50;1.63;;;;;;;17.84;52.88;101079.16;5141890;27;21210;-60
2023/07/26 00:19:26;;;;;;;6.60;1.42;;;;;;;17.83;52.72;101077.53;5140868;27;20047;-60
2023/07/26 00:21:55;;;;;;;1.92;1.20;;;;;;;17.83;52.87;101081.06;5138486;27;20088;-60
2023/07/26 00:24:23;;;;;;;1.83;1.40;;;;;;;17.82;52.70;101084.88;5143347;27;20069;-60
2023/07/26 00:26:50;;;;;;;2.97;1.80;;;;;;;17.81;52.85;101080.50;5139138;27;20499;-60
2023/07/26 00:29:18;;;;;;;2.53;1.30;;;;;;;17.81;52.82;101085.13;5142917;27;20043;-60
2023/07/26 00:31:46;;;;;;;6.07;1.63;;;;;;;17.81;52.83;101085.13;5140496;27;20142;-60
2023/07/26 00:34:14;;;;;;;1.75;1.40;;;;;;;17.81;52.89;101082.41;5141979;27;20051;-60
2023/07/26 00:36:42;;;;;;;5.05;1.30;;;;;;;17.81;52.88;101074.25;5141472;27;20050;-60
2023/07/26 00:39:11;;;;;;;2.70;1.20;;;;;;;17.80;53.01;101078.06;5142947;27;20042;-60
2023/07/26 00:41:39;;;;;;;1.88;1.40;;;;;;;17.79;52.89;101071.78;5141804;27;20039;-60
2023/07/26 00:44:06;;;;;;;2.72;1.33;;;;;;;17.80;52.86;101070.72;5139775;27;20047;-60
2023/07/26 00:46:34;;;;;;;3.45;1.27;;;;;;;17.80;52.86;101072.63;5140414;27;20077;-60
2023/07/26 00:49:03;;;;;;;5.85;1.85;;;;;;;17.77;52.93;101076.69;5142367;27;20106;-60
2023/07/26 00:51:31;;;;;;;3.20;1.35;;;;;;;17.77;52.92;101075.84;5136578;27;20054;-61
2023/07/26 00:53:59;;;;;;;1.73;1.40;;;;;;;17.75;52.89;101072.59;5142418;27;20058;-61
2023/07/26 00:56:29;;;;;;;1.58;1.10;;;;;;;17.75;52.99;101072.59;5140785;27;20083;-61
2023/07/26 00:58:57;;;;;;;2.45;1.65;;;;;;;17.75;53.08;101072.59;5140978;27;20102;-60
2023/07/26 01:01:25;;;;;;;2.28;1.35;;;;;;;17.74;53.18;101071.75;5140367;27;20058;-61
2023/07/26 01:03:53;;;;;;;3.00;1.25;;;;;;;17.73;53.12;101063.88;5140978;27;20296;-60
2023/07/26 01:06:28;;;;;;;2.15;1.70;;;;;;;17.72;53.24;101075.84;5142070;27;20045;-60
2023/07/26 01:09:03;;;;;;;3.40;1.25;;;;;;;17.72;53.13;101073.94;5134729;27;20362;-60
2023/07/26 01:11:39;;;;;;;2.95;1.42;;;;;;;17.71;53.20;101080.44;5139497;27;20043;-59
2023/07/26 01:14:14;;;;;;;4.47;1.67;;;;;;;17.72;53.37;101081.28;5139457;27;20525;-59
2023/07/26 01:16:42;;;;;;;2.63;1.30;;;;;;;17.71;53.32;101076.91;5141497;27;20301;-60
2023/07/26 01:19:10;;;;;;;3.53;1.25;;;;;;;17.70;53.10;101076.09;5139681;27;20047;-59
2023/07/26 01:21:39;;;;;;;1.63;1.30;;;;;;;17.71;53.28;101079.63;5142240;27;20084;-59
2023/07/26 01:24:07;;;;;;;2.60;1.52;;;;;;;17.71;53.37;101076.91;5139484;27;20146;-60
2023/07/26 01:26:35;;;;;;;3.65;1.40;;;;;;;17.69;53.18;101082.63;5138997;27;20047;-61
2023/07/26 01:29:03;;;;;;;1.95;1.20;;;;;;;17.68;53.21;101078.25;5139968;27;20068;-60
2023/07/26 01:31:31;;;;;;;2.60;1.05;;;;;;;17.65;52.86;101076.03;5136197;27;20058;-60
2023/07/26 01:34:01;;;;;;;3.95;1.80;;;;;;;17.69;53.04;101079.06;5140563;27;20069;-61
2023/07/26 01:36:30;;;;;;;2.78;1.65;;;;;;;17.68;53.08;101080.97;5130641;27;20476;-61
2023/07/26 01:39:00;;;;;;;3.45;1.35;;;;;;;17.66;52.92;101077.72;5138678;27;20569;-60
2023/07/26 01:41:30;;;;;;;3.83;1.60;;;;;;;17.66;52.97;101077.72;5142273;27;20043;-61
2023/07/26 01:43:58;;;;;;;2.15;1.13;;;;;;;17.65;52.89;101073.31;5136973;28;20404;-60
2023/07/26 01:46:26;;;;;;;4.78;1.30;;;;;;;17.63;52.65;101070.03;5139145;28;20079;-60
2023/07/26 01:48:54;;;;;;;4.32;1.38;;;;;;;17.63;52.76;101085.53;5142395;28;20122;-60
2023/07/26 01:51:21;;;;;;;4.32;1.70;;;;;;;17.62;52.73;101086.63;5137982;28;20277;-60
2023/07/26 01:53:49;;;;;;;2.92;1.60;;;;;;;17.62;52.83;101089.34;5138965;27;20058;-61
2023/07/26 01:56:18;;;;;;;1.98;1.38;;;;;;;17.60;52.61;101086.88;5140228;28;20078;-60
2023/07/26 01:58:46;;;;;;;2.35;1.63;;;;;;;17.56;52.95;101077.63;5138806;28;20043;-61
2023/07/26 02:01:14;;;;;;;3.85;1.73;;;;;;;17.56;53.03;101088.47;5141661;28;20051;-60
2023/07/26 02:03:42;;;;;;;4.68;1.88;;;;;;;17.54;52.94;101086.03;5136434;28;20153;-60
2023/07/26 02:06:10;;;;;;;2.42;1.35;;;;;;;17.53;52.79;101080.84;5138741;27;20042;-60
2023/07/26 02:08:38;;;;;;;2.38;1.40;;;;;;;17.51;52.89;101072.97;5140190;27;20100;-61
2023/07/26 02:11:05;;;;;;;2.63;1.50;;;;;;;17.51;52.76;101081.13;5134171;28;20487;-59
2023/07/26 02:13:35;;;;;;;2.47;1.45;;;;;;;17.48;52.71;101070.78;5137343;27;20051;-59
2023/07/26 02:16:02;;;;;;;2.88;1.42;;;;;;;17.50;52.59;101068.59;5138691;28;20040;-59
2023/07/26 02:18:31;;;;;;;1.52;1.08;;;;;;;17.50;52.40;101065.06;5142671;28;20058;-60
2023/07/26 02:20:59;;;;;;;1.55;1.10;;;;;;;17.50;52.68;101067.78;5136506;27;20064;-60
2023/07/26 02:23:27;;;;;;;4.47;1.65;;;;;;;17.49;52.36;101064.25;5143396;27;20080;-59
2023/07/26 02:25:55;;;;;;;2.55;1.27;;;;;;;17.49;52.58;101064.25;5145889;27;20089;-60
2023/07/26 02:28:23;;;;;;;2.35;1.23;;;;;;;17.48;52.78;101056.38;5143884;27;20047;-60
2023/07/26 02:30:52;;;;;;;2.17;1.40;;;;;;;17.48;53.11;101056.38;5141592;27;20081;-60
2023/07/26 02:33:19;;;;;;;2.72;1.10;;;;;;;17.48;53.13;101061.81;5145462;27;20051;-60
2023/07/26 02:35:47;;;;;;;2.08;1.35;;;;;;;17.47;53.18;101068.31;5138726;27;20107;-60
2023/07/26 02:38:15;;;;;;;3.28;1.40;;;;;;;17.45;53.25;101063.16;5144616;27;20059;-60
2023/07/26 02:40:43;;;;;;;3.65;1.30;;;;;;;17.46;53.74;101074.84;5142936;27;20047;-60
2023/07/26 02:43:11;;;;;;;2.05;1.33;;;;;;;17.44;53.89;101066.94;5142738;27;20051;-60
2023/07/26 02:45:42;;;;;;;2.17;1.20;;;;;;;17.44;53.82;101068.84;5141455;27;20122;-60
2023/07/26 02:48:12;;;;;;;1.98;1.40;;;;;;;17.43;53.63;101072.63;5144223;27;20047;-60
2023/07/26 02:50:40;;;;;;;2.08;1.40;;;;;;;17.43;54.00;101067.19;5142836;27;20051;-60
2023/07/26 02:53:07;;;;;;;2.65;1.63;;;;;;;17.41;54.06;101066.66;5143466;27;20100;-59
2023/07/26 02:55:35;;;;;;;2.70;1.27;;;;;;;17.40;54.15;101063.09;5143712;27;20044;-60
2023/07/26 02:58:03;;;;;;;2.17;1.30;;;;;;;17.39;54.29;101064.19;5142269;27;20039;-60
2023/07/26 03:00:31;;;;;;;1.95;1.30;;;;;;;17.39;54.54;101068.81;5143640;27;20051;-60
2023/07/26 03:02:59;;;;;;;2.90;1.30;;;;;;;17.37;54.43;101070.97;5141970;27;20051;-60
2023/07/26 03:05:28;;;;;;;2.83;1.60;;;;;;;17.40;54.57;101084.84;5144163;27;20059;-60
2023/07/26 03:07:56;;;;;;;3.08;1.58;;;;;;;17.38;54.71;101087.00;5142212;27;20039;-60
2023/07/26 03:10:24;;;;;;;2.60;1.42;;;;;;;17.36;54.89;101105.47;5143240;27;20055;-61
2023/07/26 03:12:52;;;;;;;2.72;1.60;;;;;;;17.37;54.98;101103.56;5142547;27;20039;-61
2023/07/26 03:15:20;;;;;;;2.58;1.90;;;;;;;17.35;55.15;101097.56;5144221;27;20155;-61
2023/07/26 03:17:48;;;;;;;2.22;1.70;;;;;;;17.34;55.35;101098.66;5136634;27;20043;-59
2023/07/26 03:20:15;;;;;;;4.00;1.85;;;;;;;17.34;55.25;101087.78;5145035;27;20051;-59
2023/07/26 03:22:44;;;;;;;2.78;1.52;;;;;;;17.34;55.25;101085.06;5142549;27;20088;-60
2023/07/26 03:25:12;;;;;;;3.50;1.80;;;;;;;17.32;55.49;101085.38;5141393;27;20108;-60
2023/07/26 03:27:40;;;;;;;4.57;2.05;;;;;;;17.32;55.71;101087.25;5143100;27;20064;-60
2023/07/26 03:30:08;;;;;;;3.78;2.20;;;;;;;17.32;55.90;101079.13;5139984;27;20046;-60
2023/07/26 03:32:36;;;;;;;6.90;2.45;;;;;;;17.30;55.92;101090.25;5136517;27;20059;-60
2023/07/26 03:35:05;;;;;;;4.18;1.95;;;;;;;17.29;55.94;101085.88;5142907;27;20055;-60
2023/07/26 03:37:33;;;;;;;3.53;1.95;;;;;;;17.28;55.80;101086.97;5140090;27;20043;-60
2023/07/26 03:40:04;;;;;;;4.65;2.15;;;;;;;17.29;55.95;101090.50;5142042;27;20182;-60
2023/07/26 03:42:31;;;;;;;3.25;1.92;;;;;;;17.28;55.99;101089.69;5143876;27;20050;-60
2023/07/26 03:44:59;;;;;;;3.15;2.17;;;;;;;17.27;56.02;101079.06;5142957;27;20484;-60
2023/07/26 03:47:27;;;;;;;4.05;2.08;;;;;;;17.27;56.06;101090.75;5140857;27;20046;-60
2023/07/26 03:49:55;;;;;;;3.72;1.95;;;;;;;17.27;56.27;101084.50;5142274;27;20047;-60
2023/07/26 03:52:22;;;;;;;4.78;2.13;;;;;;;17.26;56.28;101086.41;5140086;27;20069;-60
2023/07/26 03:54:50;;;;;;;4.00;2.08;;;;;;;17.26;56.35;101085.59;5140985;27;20129;-60
2023/07/26 03:57:20;;;;;;;3.75;2.00;;;;;;;17.26;56.48;101085.59;5141762;27;20047;-60
2023/07/26 03:59:47;;;;;;;4.55;2.15;;;;;;;17.23;56.45;101085.03;5143330;27;20070;-60
2023/07/26 04:02:15;;;;;;;4.88;1.88;;;;;;;17.24;56.58;101080.41;5141175;27;20112;-60
2023/07/26 04:04:43;;;;;;;3.42;2.20;;;;;;;17.20;56.66;101077.41;5140421;27;20092;-60
2023/07/26 04:07:11;;;;;;;3.83;2.40;;;;;;;17.23;56.95;101082.31;5140630;27;20184;-60
2023/07/26 04:09:39;;;;;;;3.97;2.00;;;;;;;17.22;56.84;101082.56;5141167;27;20050;-60
2023/07/26 04:12:07;;;;;;;3.22;2.03;;;;;;;17.22;56.93;101091.53;5139609;27;20071;-60
2023/07/26 04:14:36;;;;;;;3.05;1.65;;;;;;;17.21;57.12;101086.38;5143052;27;20139;-59
2023/07/26 04:17:04;;;;;;;4.10;2.10;;;;;;;17.21;57.11;101089.09;5143085;27;20472;-60
2023/07/26 04:19:32;;;;;;;2.47;1.70;;;;;;;17.20;56.89;101088.25;5141028;27;20442;-60
2023/07/26 04:22:00;;;;;;;7.78;2.55;;;;;;;17.17;56.93;101077.91;5137282;27;20069;-60
2023/07/26 04:24:28;;;;;;;2.70;1.77;;;;;;;17.18;57.03;101078.75;5144994;27;20050;-60
2023/07/26 04:26:56;;;;;;;4.43;1.98;;;;;;;17.17;57.08;101093.41;5141654;27;20063;-60
2023/07/26 04:29:24;;;;;;;3.13;2.08;;;;;;;17.17;57.03;101087.97;5137176;27;20104;-59
2023/07/26 04:31:53;;;;;;;2.33;1.90;;;;;;;17.16;57.00;101091.75;5137596;27;20055;-60
2023/07/26 04:34:21;;;;;;;5.57;2.03;;;;;;;17.16;57.20;101083.59;5136638;27;20074;-60
2023/07/26 04:36:49;;;;;;;4.38;2.17;;;;;;;17.14;56.98;101094.72;5141002;27;20077;-60
2023/07/26 04:39:16;;;;;;;2.92;1.77;;;;;;;17.14;56.97;101081.16;5141712;27;20063;-60
2023/07/26 04:41:44;;;;;;;3.92;2.30;;;;;;;17.13;57.13;101089.56;5134591;27;20100;-60
2023/07/26 04:44:12;;;;;;;5.00;1.92;;;;;;;17.10;57.07;101085.47;5140527;27;20112;-60
2023/07/26 04:46:40;;;;;;;3.72;1.92;;;;;;;17.12;56.86;101079.78;5140380;27;20064;-62
2023/07/26 04:49:09;;;;;;;3.15;2.00;;;;;;;17.11;56.95;101087.09;5142998;27;20038;-60
2023/07/26 04:51:37;;;;;;;3.25;1.85;;;;;;;17.10;57.19;101090.91;5142892;27;20147;-60
2023/07/26 04:54:06;;;;;;;2.60;1.75;;;;;;;17.10;57.05;101084.66;5133968;27;20097;-60
2023/07/26 04:56:33;;;;;;;3.47;1.92;;;;;;;17.09;57.00;101085.72;5143683;27;20146;-59
2023/07/26 04:59:02;;;;;;;2.63;1.80;;;;;;;17.09;57.09;101091.16;5145750;27;20381;-60
2023/07/26 05:01:29;;;;;;;3.13;1.90;;;;;;;17.07;56.91;101083.28;5144179;27;20039;-61
2023/07/26 05:03:58;;;;;;;5.13;2.40;;;;;;;17.06;57.02;101087.06;5138087;27;20046;-61
2023/07/26 05:06:27;;;;;;;3.33;2.13;;;;;;;17.05;57.32;101084.59;5142746;27;20073;-61
2023/07/26 05:08:55;;;;;;;5.60;2.58;;;;;;;17.04;57.11;101089.22;5141841;27;20075;-64
2023/07/26 05:11:23;;;;;;;4.53;1.92;;;;;;;17.03;57.31;101092.19;5141808;27;20054;-62
2023/07/26 05:13:51;;;;;;;3.85;1.75;;;;;;;17.03;56.97;101092.19;5141822;27;20047;-60
2023/07/26 05:16:18;;;;;;;4.97;2.05;;;;;;;17.02;57.30;101085.13;5137243;27;20069;-60
2023/07/26 05:18:46;;;;;;;2.88;1.77;;;;;;;17.02;57.49;101090.56;5138990;27;20051;-63
2023/07/26 05:21:14;;;;;;;2.45;1.63;;;;;;;17.03;57.05;101094.91;5140853;27;20051;-62
2023/07/26 05:23:43;;;;;;;3.30;1.90;;;;;;;17.02;57.53;101096.81;5141436;27;20046;-62
2023/07/26 05:26:12;;;;;;;3.40;1.73;;;;;;;17.02;57.32;101094.09;4426604;27;10000502;-62
2023/07/26 05:28:40;;;;;;;2.63;1.70;;;;;;;17.03;57.52;101095.72;5139495;27;20478;-62
2023/07/26 05:31:07;;;;;;;4.45;2.30;;;;;;;17.04;57.36;101091.94;5139002;27;20051;-61
2023/07/26 05:33:35;;;;;;;3.90;2.33;;;;;;;17.05;57.60;101096.28;5137575;27;20054;-59
2023/07/26 05:36:03;;;;;;;6.32;2.28;;;;;;;17.07;57.38;101098.75;5140009;27;20432;-60
2023/07/26 05:38:31;;;;;;;4.80;2.00;;;;;;;17.09;57.78;101096.59;5133873;27;20054;-60
2023/07/26 05:41:04;;;;;;;3.35;1.75;;;;;;;17.11;57.45;101091.72;5140200;27;20043;-61
2023/07/26 05:43:32;;;;;;;5.35;2.00;;;;;;;17.11;57.41;101089.81;5151295;27;20060;-61
2023/07/26 05:46:01;;;;;;;4.25;2.13;;;;;;;17.12;57.73;101094.19;5138966;27;20054;-62
2023/07/26 05:48:29;;;;;;;3.70;2.13;;;;;;;17.16;57.70;101094.47;5134728;27;20122;-62
2023/07/26 05:50:57;;;;;;;4.00;2.15;;;;;;;17.16;57.57;101092.56;5137492;28;20077;-61
2023/07/26 05:53:25;;;;;;;4.60;1.92;;;;;;;17.26;57.64;101093.72;5142727;28;20108;-62
2023/07/26 05:55:52;;;;;;;5.80;2.42;;;;;;;17.27;58.09;101095.38;5140630;27;20563;-61
2023/07/26 05:58:22;;;;;;;6.63;2.40;;;;;;;17.28;58.07;101091.56;5140622;27;20043;-62
2023/07/26 06:00:49;;;;;;;4.32;2.22;;;;;;;17.30;58.24;101094.84;5141197;27;20054;-61
2023/07/26 06:03:17;;;;;;;5.43;2.22;;;;;;;17.32;58.04;101098.94;5144877;27;20051;-62
2023/07/26 06:05:45;;;;;;;5.93;2.35;;;;;;;17.33;58.15;101095.16;5134556;27;20048;-62
2023/07/26 06:08:14;;;;;;;6.53;2.50;;;;;;;17.34;58.02;101096.75;5147334;27;20043;-62
2023/07/26 06:10:42;;;;;;;5.03;2.22;;;;;;;17.34;58.21;101099.47;5149247;27;20091;-62
2023/07/26 06:13:12;;;;;;;5.43;2.67;;;;;;;17.35;58.28;101103.81;5147413;27;20112;-62
2023/07/26 06:15:42;;;;;;;4.72;2.25;;;;;;;17.39;58.04;101098.69;5148830;27;20051;-62
2023/07/26 06:18:10;;;;;;;3.55;2.35;;;;;;;17.43;58.16;101107.97;5143984;27;20488;-62
2023/07/26 06:20:37;;;;;;;5.55;2.33;;;;;;;17.41;58.34;101115.56;5142820;27;20066;-62
2023/07/26 06:23:06;;;;;;;3.78;2.10;;;;;;;17.39;58.26;101123.97;5140585;27;20097;-62
2023/07/26 06:25:34;;;;;;;6.72;2.67;;;;;;;17.40;58.58;101120.16;5147313;27;20058;-62
2023/07/26 06:28:02;;;;;;;3.78;2.38;;;;;;;17.52;58.50;101130.84;5149450;27;20195;-62
2023/07/26 06:30:30;;;;;;;9.13;2.58;;;;;;;17.48;58.72;101129.72;5148243;27;20084;-62
2023/07/26 06:33:00;;;;;;;5.25;3.10;;;;;;;17.48;58.69;101130.56;5143257;27;20077;-61
2023/07/26 06:35:27;;;;;;;4.93;2.47;;;;;;;17.47;58.78;101141.69;5148537;27;20058;-62
2023/07/26 06:37:55;;;;;;;5.75;2.88;;;;;;;17.45;58.80;101146.56;5144713;27;20408;-61
2023/07/26 06:40:23;;;;;;;6.15;2.88;;;;;;;17.43;58.95;101152.25;5144345;27;20047;-61
2023/07/26 06:42:51;;;;;;;7.32;2.58;;;;;;;17.39;58.81;101145.69;5146859;27;20446;-61
2023/07/26 06:45:19;;;;;;;6.10;2.85;;;;;;;17.39;59.18;101150.31;5150545;27;20054;-62
2023/07/26 06:47:47;;;;;;;7.95;3.08;;;;;;;17.37;58.87;101149.75;5148277;27;20066;-61
2023/07/26 06:50:16;;;;;;;8.48;2.63;;;;;;;17.37;59.26;101153.28;5144862;27;20043;-61
2023/07/26 06:52:44;;;;;;;5.53;2.20;;;;;;;17.38;59.30;101159.53;5147347;27;20047;-61
2023/07/26 06:55:12;;;;;;;5.68;2.35;;;;;;;17.37;59.17;101153.28;5147989;27;20111;-62
2023/07/26 06:57:40;;;;;;;7.45;2.85;;;;;;;17.36;59.50;101154.38;5146273;27;20047;-61
2023/07/26 07:00:12;;;;;;;7.10;2.75;;;;;;;17.37;59.39;101158.72;5144458;27;20039;-61
2023/07/26 07:02:40;;;;;;;6.47;2.60;;;;;;;17.37;59.55;101156.00;5146236;27;20070;-61
2023/07/26 07:05:09;;;;;;;7.30;3.28;;;;;;;17.38;59.80;101160.38;5147362;27;20469;-61
2023/07/26 07:07:38;;;;;;;7.22;2.67;;;;;;;17.39;59.78;101163.91;5145790;27;20043;-62
2023/07/26 07:10:07;;;;;;;7.47;3.47;;;;;;;17.39;59.99;101164.72;5143159;27;20055;-61
2023/07/26 07:12:35;;;;;;;9.00;2.95;;;;;;;17.41;59.96;101159.84;5141430;27;20047;-61
2023/07/26 07:15:03;;;;;;;8.38;3.17;;;;;;;17.43;59.74;101167.75;5147509;27;20045;-61
2023/07/26 07:17:31;;;;;;;6.65;3.85;;;;;;;17.42;59.78;101168.81;5146316;27;20049;-61
2023/07/26 07:19:59;;;;;;;5.20;3.25;;;;;;;17.39;59.67;101166.63;5142589;27;20043;-62
2023/07/26 07:22:27;;;;;;;9.13;3.30;;;;;;;17.41;59.76;101170.72;5147520;27;20054;-62
2023/07/26 07:24:57;;;;;;;7.05;2.92;;;;;;;17.40;60.05;101176.41;5146306;27;20043;-62
2023/07/26 07:27:25;;;;;;;5.35;2.47;;;;;;;17.41;59.88;101184.31;5145915;27;20047;-61
2023/07/26 07:29:53;;;;;;;6.03;3.08;;;;;;;17.38;60.36;101198.41;5140857;27;20049;-62
2023/07/26 07:32:22;;;;;;;10.23;3.67;;;;;;;17.38;60.01;101198.41;5140042;27;20059;-62
2023/07/26 07:34:50;;;;;;;7.43;3.42;;;;;;;17.39;60.50;101200.03;5143700;27;20050;-61
2023/07/26 07:37:18;;;;;;;7.70;3.50;;;;;;;17.40;60.08;101198.97;5140776;27;20047;-62
2023/07/26 07:39:46;;;;;;;6.95;3.13;;;;;;;17.40;60.51;101195.44;5146066;27;20112;-62
2023/07/26 07:42:15;;;;;;;7.13;3.88;;;;;;;17.41;60.40;101191.63;5144835;27;20043;-61
2023/07/26 07:44:42;;;;;;;7.93;3.13;;;;;;;17.40;60.42;101196.25;5147124;27;20123;-61
2023/07/26 07:47:10;;;;;;;8.88;3.47;;;;;;;17.41;60.46;101195.16;5146585;27;20043;-62
2023/07/26 07:49:42;;;;;;;12.02;3.72;;;;;;;17.43;60.58;101200.34;5140430;27;20126;-62
2023/07/26 07:52:09;;;;;;;9.05;3.65;;;;;;;17.41;60.81;101205.22;5146569;27;20096;-61
2023/07/26 07:54:37;;;;;;;7.03;2.75;;;;;;;17.41;60.67;101206.03;5147028;27;20043;-61
2023/07/26 07:57:06;;;;;;;8.20;4.20;;;;;;;17.42;60.60;101207.69;5137554;27;20103;-61
2023/07/26 07:59:35;;;;;;;9.60;3.58;;;;;;;17.41;60.54;101206.03;5145268;27;20054;-61
2023/07/26 08:02:03;;;;;;;6.15;2.70;;;;;;;17.43;60.71;101203.88;5145504;27;20046;-63
2023/07/26 08:04:31;;;;;;;9.02;3.35;;;;;;;17.43;60.52;101206.59;5145166;27;20043;-62
2023/07/26 08:06:59;;;;;;;7.80;3.15;;;;;;;17.44;60.19;101201.97;5145559;27;20047;-62
2023/07/26 08:09:26;;;;;;;6.38;2.95;;;;;;;17.42;60.06;101194.09;5146193;27;20116;-62
2023/07/26 08:11:54;;;;;;;7.68;2.92;;;;;;;17.40;60.38;101188.09;5144448;27;20126;-62
2023/07/26 08:14:22;;;;;;;5.53;3.20;;;;;;;17.40;60.45;101193.53;5146478;27;20076;-62
2023/07/26 08:16:51;;;;;;;5.45;2.83;;;;;;;17.41;60.50;101197.06;5144276;27;20066;-62
2023/07/26 08:19:19;;;;;;;6.32;2.90;;;;;;;17.42;60.88;101191.38;5143532;27;20039;-62
2023/07/26 08:21:47;;;;;;;8.05;2.80;;;;;;;17.43;60.59;101193.00;5137323;27;20073;-62
2023/07/26 08:24:16;;;;;;;6.55;3.42;;;;;;;17.43;60.72;101195.72;5145768;27;20442;-62
2023/07/26 08:26:44;;;;;;;7.45;3.25;;;;;;;17.45;60.61;101195.47;5144791;27;20043;-62
2023/07/26 08:29:12;;;;;;;7.00;2.90;;;;;;;17.46;60.63;101194.41;5145086;27;20406;-62
2023/07/26 08:31:40;;;;;;;5.90;3.13;;;;;;;17.44;60.63;101186.50;5138884;27;20088;-62
2023/07/26 08:34:09;;;;;;;4.68;2.72;;;;;;;17.50;60.50;101196.34;5145095;27;20045;-62
2023/07/26 08:36:37;;;;;;;7.50;3.15;;;;;;;17.51;60.51;101195.25;5145587;27;20476;-62
2023/07/26 08:39:05;;;;;;;7.30;3.58;;;;;;;17.52;60.63;101196.91;5143620;27;20069;-62
2023/07/26 08:41:36;;;;;;;6.43;2.95;;;;;;;17.53;60.62;101195.81;5143978;27;20055;-62
2023/07/26 08:44:06;;;;;;;4.72;3.33;;;;;;;17.55;60.68;101187.41;5146078;27;20054;-62
2023/07/26 08:46:34;;;;;;;9.30;3.30;;;;;;;17.57;60.63;101202.38;5139595;27;20142;-62
2023/07/26 08:49:03;;;;;;;5.45;3.08;;;;;;;17.60;60.71;101181.19;5145979;27;20054;-62
2023/07/26 08:51:33;;;;;;;6.20;3.28;;;;;;;17.63;60.60;101189.63;5145159;27;20055;-61
2023/07/26 08:54:01;;;;;;;8.48;2.92;;;;;;;17.68;60.71;101188.88;5147824;27;20050;-61
2023/07/26 08:56:30;;;;;;;6.13;2.85;;;;;;;17.68;60.71;101189.72;5142344;27;20074;-61
2023/07/26 08:58:59;;;;;;;7.13;2.90;;;;;;;17.69;60.58;101199.50;5146032;27;20051;-61
2023/07/26 09:01:28;;;;;;;4.93;2.63;;;;;;;17.69;60.62;101185.91;5136155;27;20035;-62
2023/07/26 09:04:03;;;;;;;11.48;3.30;;;;;;;17.71;60.67;101185.66;5144590;27;20054;-61
2023/07/26 09:06:39;;;;;;;6.60;2.92;;;;;;;17.71;60.61;101185.66;5140494;27;20084;-62
2023/07/26 09:09:07;;;;;;;7.55;3.17;;;;;;;17.71;60.63;101175.59;5145155;27;20039;-62
2023/07/26 09:11:35;;;;;;;6.00;2.50;;;;;;;17.72;60.55;101173.69;5142902;27;20068;-62
2023/07/26 09:14:04;;;;;;;8.70;3.45;;;;;;;17.73;60.65;101180.78;5143939;27;20111;-61
2023/07/26 09:16:33;;;;;;;7.07;2.72;;;;;;;17.74;60.67;101180.50;5142954;27;20073;-62
2023/07/26 09:19:02;;;;;;;4.75;2.50;;;;;;;17.77;60.53;101168.28;5143954;27;20039;-61
2023/07/26 09:21:32;;;;;;;5.22;2.70;;;;;;;17.80;60.46;101170.50;5140132;27;20047;-62
2023/07/26 09:24:04;;;;;;;8.93;2.75;;;;;;;17.80;60.48;101163.16;5144067;27;20046;-62
2023/07/26 09:26:37;;;;;;;7.03;2.67;;;;;;;17.83;60.12;101164.53;5145159;27;20051;-62
2023/07/26 09:29:09;;;;;;;4.97;2.70;;;;;;;17.83;60.16;101173.50;5144206;27;20055;-62
2023/07/26 09:31:38;;;;;;;5.68;2.78;;;;;;;17.83;59.78;101170.78;5140122;27;20116;-62
2023/07/26 09:34:08;;;;;;;6.47;2.60;;;;;;;17.84;59.27;101177.84;5143721;27;20399;-62
2023/07/26 09:36:45;;;;;;;7.90;3.38;;;;;;;17.86;59.13;101175.69;5144512;27;20065;-61
2023/07/26 09:39:15;;;;;;;8.98;3.38;;;;;;;17.85;58.93;101167.81;5141721;27;20077;-62
2023/07/26 09:41:45;;;;;;;4.68;2.60;;;;;;;17.86;58.98;101180.31;5137998;27;20088;-62
2023/07/26 09:44:16;;;;;;;6.45;2.80;;;;;;;17.86;58.72;101189.28;5142784;27;20069;-63
2023/07/26 09:46:48;;;;;;;7.38;2.65;;;;;;;17.87;58.84;101193.66;5140316;28;20043;-62
2023/07/26 09:49:17;;;;;;;4.70;2.67;;;;;;;17.90;58.88;101200.47;5141465;28;20115;-62
2023/07/26 09:51:53;;;;;;;7.95;2.90;;;;;;;17.88;58.96;101189.03;5140914;27;20069;-61
2023/07/26 09:54:27;;;;;;;7.47;3.10;;;;;;;17.89;59.17;101185.22;5144931;28;20066;-62
2023/07/26 09:57:01;;;;;;;6.43;3.20;;;;;;;17.89;59.46;101187.94;5136628;27;20111;-61
2023/07/26 09:59:30;;;;;;;5.45;3.15;;;;;;;17.87;59.52;101184.69;5135962;28;20112;-62
2023/07/26 10:02:03;;;;;;;6.10;3.05;;;;;;;17.91;59.69;101179.53;5140972;28;20043;-62
2023/07/26 10:04:38;;;;;;;6.63;3.33;;;;;;;17.92;59.68;101173.84;5141756;28;20050;-62
2023/07/26 10:07:11;;;;;;;6.23;2.63;;;;;;;17.93;59.99;101182.81;5144441;28;20047;-62
2023/07/26 10:09:44;;;;;;;5.13;2.65;;;;;;;17.91;59.86;101179.53;5139301;28;20058;-62
2023/07/26 10:12:13;;;;;;;6.80;3.35;;;;;;;17.96;59.75;101182.28;5142564;28;20051;-61
2023/07/26 10:14:41;;;;;;;4.68;2.55;;;;;;;17.98;59.64;101185.56;5143146;28;20051;-61
2023/07/26 10:17:11;;;;;;;7.82;2.97;;;;;;;17.98;59.24;101175.50;5144561;28;20129;-62
2023/07/26 10:19:39;;;;;;;6.30;2.97;;;;;;;17.99;59.07;101174.41;5142517;28;20106;-62
2023/07/26 10:22:08;;;;;;;5.50;2.78;;;;;;;18.00;58.37;101177.97;5142791;28;20043;-62
2023/07/26 10:24:37;;;;;;;5.63;2.75;;;;;;;18.00;57.75;101180.69;5145422;27;20055;-62
2023/07/26 10:27:07;;;;;;;5.03;2.45;;;;;;;18.00;57.27;101170.63;5135744;28;20078;-62
2023/07/26 10:29:36;;;;;;;4.35;2.08;;;;;;;18.01;57.09;101174.97;5143218;28;20047;-62
2023/07/26 10:32:06;;;;;;;5.40;2.55;;;;;;;18.03;56.69;101166.56;5138282;28;20055;-62
2023/07/26 10:34:34;;;;;;;3.75;2.20;;;;;;;18.06;56.45;101168.75;5142141;28;20058;-62
2023/07/26 10:37:14;;;;;;;3.95;2.30;;;;;;;18.10;56.58;101161.69;5139640;28;20047;-62
2023/07/26 10:39:42;;;;;;;3.88;2.20;;;;;;;18.11;56.78;101164.16;5143179;28;20058;-62
2023/07/26 10:42:23;;;;;;;4.05;2.53;;;;;;;18.15;56.65;101156.28;5143434;27;20046;-63
2023/07/26 10:44:53;;;;;;;3.90;2.38;;;;;;;18.17;56.29;101165.00;5142678;27;20043;-62
2023/07/26 10:47:21;;;;;;;7.88;2.80;;;;;;;18.18;56.02;101167.44;5146883;27;20071;-61
2023/07/26 10:49:49;;;;;;;6.53;2.70;;;;;;;18.20;55.09;101161.75;5140804;27;20047;-61
2023/07/26 10:52:18;;;;;;;4.28;2.40;;;;;;;18.21;55.20;101156.03;5148052;27;20058;-62
2023/07/26 10:54:48;;;;;;;5.15;2.60;;;;;;;18.25;55.87;101158.22;5147473;27;20104;-62
2023/07/26 10:57:18;;;;;;;4.00;2.10;;;;;;;18.27;55.78;101151.44;5138704;27;20118;-62
2023/07/26 10:59:58;;;;;;;6.35;2.80;;;;;;;18.32;56.07;101159.63;5147700;27;20099;-62
2023/07/26 11:02:43;;;;;;;3.47;2.35;;;;;;;18.36;56.22;101159.91;5147049;27;20043;-62
2023/07/26 11:05:13;;;;;;;4.85;2.60;;;;;;;18.38;56.00;101168.63;5141201;27;20043;-62
2023/07/26 11:07:55;;;;;;;5.25;3.28;;;;;;;18.42;55.83;101170.56;5147549;27;20126;-62
2023/07/26 11:10:24;;;;;;;4.93;2.53;;;;;;;18.44;55.59;101184.72;5147331;27;20047;-62
2023/07/26 11:13:05;;;;;;;4.32;2.25;;;;;;;18.46;55.99;101182.53;5143984;27;20068;-63
2023/07/26 11:15:36;;;;;;;4.40;2.58;;;;;;;18.45;55.51;101175.47;5145957;27;20043;-62
2023/07/26 11:18:24;;;;;;;5.90;2.75;;;;;;;18.47;54.85;101178.75;5142974;27;20051;-61
2023/07/26 11:20:54;;;;;;;4.10;2.30;;;;;;;18.47;54.74;101173.28;5145174;27;20047;-61
2023/07/26 11:23:23;;;;;;;4.25;2.53;;;;;;;18.48;54.91;101163.22;5147545;27;20058;-61
2023/07/26 11:25:57;;;;;;;4.35;2.40;;;;;;;18.49;54.60;101167.59;5147508;27;20187;-61
2023/07/26 11:28:25;;;;;;;3.80;2.03;;;;;;;18.51;55.21;101176.31;5144331;27;20142;-62
2023/07/26 11:30:58;;;;;;;3.97;2.38;;;;;;;18.57;56.11;101168.97;5143220;27;21411;-61
2023/07/26 11:33:27;;;;;;;3.85;2.38;;;;;;;18.58;55.90;101176.88;5146229;27;20059;-61